Time;durP1;ratioP1;P1;durP2;ratioP2;P2;SDS_P1;SDS_P2;PMS_P1;PMS_P2;Temp;Humidity;BMP_temperature;BMP_pressure;BME280_temperature;BME280_humidity;BME280_pressure;Samples;Min_cycle;Max_cycle;Signal;HPM_P1;HPM_P2
2022/10/18 00:01:15;;;;;;;23.15;14.20;;;15.90;99.90;;;14.62;100.00;101714.38;4995007;28;20034;-81
2022/10/18 00:03:42;;;;;;;23.58;14.68;;;15.80;99.90;;;14.56;100.00;101707.84;5003860;28;20499;-81
2022/10/18 00:06:08;;;;;;;22.88;14.70;;;15.80;99.90;;;14.58;100.00;101721.34;4999463;28;20026;-81
2022/10/18 00:08:37;;;;;;;20.98;14.20;;;15.80;99.90;;;14.56;100.00;101715.22;4991446;28;20034;-79
2022/10/18 00:11:03;;;;;;;24.23;16.42;;;15.80;99.90;;;14.61;100.00;101715.44;4999491;28;20083;-80
2022/10/18 00:13:29;;;;;;;25.15;14.77;;;15.80;99.90;;;14.63;100.00;101724.31;5002502;28;20163;-80
2022/10/18 00:16:01;;;;;;;23.05;14.82;;;15.80;99.90;;;14.55;100.00;101716.28;4985452;28;20129;-80
2022/10/18 00:18:28;;;;;;;23.40;15.30;;;15.80;99.90;;;14.46;100.00;101702.00;5002315;28;20559;-80
2022/10/18 00:21:02;;;;;;;24.15;15.20;;;15.70;99.90;;;14.52;100.00;101718.41;4998362;28;20030;-79
2022/10/18 00:23:30;;;;;;;24.55;14.75;;;15.70;99.90;;;14.49;100.00;101715.28;4999967;28;20037;-80
2022/10/18 00:26:11;;;;;;;26.67;15.73;;;15.70;99.90;;;14.37;100.00;101693.97;5001453;28;20062;-80
2022/10/18 00:28:38;;;;;;;23.80;15.73;;;15.70;99.90;;;14.44;100.00;101721.41;5004027;28;20030;-80
2022/10/18 00:31:25;;;;;;;24.43;15.33;;;15.70;99.90;;;14.41;100.00;101721.00;5000233;28;20026;-80
2022/10/18 00:33:55;;;;;;;23.95;16.27;;;15.60;99.90;;;14.39;100.00;101723.97;4996001;28;20294;-79
2022/10/18 00:36:24;;;;;;;22.65;14.93;;;15.60;99.90;;;14.28;100.00;101719.13;4999994;28;20124;-80
2022/10/18 00:38:51;;;;;;;25.60;16.42;;;15.60;99.90;;;14.31;100.00;101727.78;5002676;28;20124;-80
2022/10/18 00:41:28;;;;;;;23.73;15.15;;;15.60;99.90;;;14.31;100.00;101735.16;5004267;28;20366;-81
2022/10/18 00:44:01;;;;;;;23.25;15.02;;;15.50;99.90;;;14.29;100.00;101729.03;4996495;28;20504;-81
2022/10/18 00:46:32;;;;;;;26.55;16.30;;;15.50;99.90;;;14.27;100.00;101731.16;4997486;28;20045;-82
2022/10/18 00:49:20;;;;;;;24.73;14.95;;;15.50;99.90;;;14.24;100.00;101744.25;4997230;28;20033;-81
2022/10/18 00:51:50;;;;;;;25.50;15.73;;;15.50;99.90;;;14.13;100.00;101728.47;4973762;28;20092;-82
2022/10/18 00:54:18;;;;;;;22.65;15.25;;;15.40;99.90;;;14.19;100.00;101744.06;5003559;28;20124;-82
2022/10/18 00:56:45;;;;;;;24.73;15.70;;;15.40;99.90;;;14.05;100.00;101715.81;5003247;28;20030;-81
2022/10/18 00:59:14;;;;;;;27.02;15.65;;;15.40;99.90;;;14.21;100.00;101732.91;4999632;28;20053;-81
2022/10/18 01:01:40;;;;;;;26.38;16.02;;;15.40;99.90;;;14.19;100.00;101733.09;5001873;28;20107;-81
2022/10/18 01:04:06;;;;;;;23.33;15.38;;;15.40;99.90;;;14.17;100.00;101726.97;5001390;28;20424;-81
2022/10/18 01:06:59;;;;;;;23.17;15.43;;;15.40;99.90;;;14.19;100.00;101729.50;5003747;28;20410;-81
2022/10/18 01:09:54;;;;;;;25.83;15.80;;;15.40;99.90;;;14.18;100.00;101741.53;4970797;28;20046;-81
2022/10/18 01:12:58;;;;;;;23.95;14.85;;;15.40;99.90;;;14.16;100.00;101747.25;4965836;28;20065;-81
2022/10/18 01:15:38;;;;;;;19.55;14.27;;;15.40;99.90;;;14.15;100.00;101753.78;4999373;28;20034;-81
2022/10/18 01:18:23;;;;;;;24.35;15.73;;;15.40;99.90;;;14.16;100.00;101750.00;5004765;28;20105;-82
2022/10/18 01:21:07;;;;;;;26.55;16.35;;;15.40;99.90;;;14.17;100.00;101746.19;4999517;28;20492;-79
2022/10/18 01:24:02;;;;;;;27.92;16.20;;;15.40;99.90;;;14.18;100.00;101745.13;4997262;28;20101;-80
2022/10/18 01:27:00;;;;;;;23.60;14.77;;;15.40;99.90;;;14.13;100.00;101739.44;4996123;28;20350;-80
2022/10/18 01:29:44;;;;;;;22.88;15.02;;;15.40;99.90;;;14.15;100.00;101741.97;4997290;28;20535;-81
2022/10/18 01:32:22;;;;;;;24.90;15.98;;;15.40;99.90;;;14.09;100.00;101727.22;5004743;28;20080;-80
2022/10/18 01:34:57;;;;;;;24.58;15.13;;;15.40;99.90;;;14.10;100.00;101724.25;5002042;28;20026;-80
2022/10/18 01:37:25;;;;;;;22.83;15.25;;;15.40;99.90;;;14.13;100.00;101720.25;5001908;28;20045;-79
2022/10/18 01:39:55;;;;;;;;;;;15.30;99.90;;;14.10;100.00;101706.94;5002056;28;20037;-80
2022/10/18 01:42:21;;;;;;;23.13;14.82;;;15.30;99.90;;;14.08;100.00;101703.59;5007862;28;19913;-78
2022/10/18 01:44:51;;;;;;;22.80;13.68;;;15.40;99.90;;;14.05;100.00;101709.47;5004818;28;20120;-78
2022/10/18 01:47:19;;;;;;;22.75;14.38;;;15.30;99.90;;;14.03;100.00;101706.09;5007310;28;20030;-79
2022/10/18 01:49:45;;;;;;;22.70;14.35;;;15.30;99.90;;;14.02;100.00;101709.91;5003380;28;20026;-79
2022/10/18 01:52:15;;;;;;;23.30;15.63;;;15.30;99.90;;;14.05;100.00;101714.97;4994482;28;20033;-79
2022/10/18 01:54:47;;;;;;;20.33;14.60;;;15.30;99.90;;;14.02;100.00;101707.16;5001670;28;20053;-78
2022/10/18 01:57:34;;;;;;;25.77;15.02;;;15.30;99.90;;;13.99;100.00;101704.84;5000444;28;20121;-79
2022/10/18 02:00:18;;;;;;;23.42;15.52;;;15.30;99.90;;;13.92;100.00;101697.47;5004594;28;20037;-78
2022/10/18 02:02:43;;;;;;;25.70;14.50;;;15.20;99.90;;;13.93;100.00;101706.56;5005305;28;20037;-78
2022/10/18 02:06:05;;;;;;;22.92;15.23;;;15.20;99.90;;;13.89;100.00;101708.03;5004434;28;20033;-78
2022/10/18 02:09:07;;;;;;;23.85;14.95;;;15.20;99.90;;;13.82;100.00;101705.31;5005549;28;20037;-79
2022/10/18 02:11:36;;;;;;;22.02;13.07;;;15.10;99.90;;;13.76;100.00;101704.25;4980439;28;20759;-79
2022/10/18 02:14:11;;;;;;;23.25;14.23;;;15.00;99.90;;;13.71;100.00;101697.72;4999007;28;20386;-78
2022/10/18 02:16:44;;;;;;;21.52;13.80;;;15.00;99.90;;;13.66;100.00;101693.72;5003530;28;20496;-78
2022/10/18 02:19:31;;;;;;;22.52;13.65;;;15.00;99.90;;;13.63;100.00;101696.88;5004642;28;20034;-78
2022/10/18 02:21:59;;;;;;;18.35;12.98;;;14.90;99.90;;;13.61;100.00;101696.25;5002244;28;20026;-78
2022/10/18 02:24:41;;;;;;;19.80;12.85;;;14.90;99.90;;;13.56;100.00;101701.53;5005078;28;20038;-80
2022/10/18 02:27:08;;;;;;;22.40;13.60;;;14.80;99.90;;;13.48;100.00;101705.31;4998435;28;20136;-79
2022/10/18 02:29:35;;;;;;;21.80;14.35;;;14.80;99.90;;;13.50;100.00;101708.69;4997690;28;20033;-79
2022/10/18 02:32:18;;;;;;;20.05;12.68;;;14.80;99.90;;;13.46;100.00;101706.56;5008379;28;20052;-79
2022/10/18 02:34:57;;;;;;;20.80;12.73;;;14.70;99.90;;;13.38;100.00;101696.63;4984784;28;20555;-79
2022/10/18 02:37:29;;;;;;;21.15;13.32;;;14.70;99.90;;;13.36;100.00;101690.50;5005223;28;20034;-80
2022/10/18 02:39:55;;;;;;;22.05;14.05;;;14.70;99.90;;;13.35;100.00;101680.59;4997268;28;20084;-79
2022/10/18 02:42:21;;;;;;;26.40;15.43;;;14.60;99.90;;;13.35;100.00;101675.13;4999323;28;20543;-79
2022/10/18 02:44:47;;;;;;;31.48;17.27;;;14.70;99.90;;;13.37;100.00;101684.84;4999043;28;20026;-79
2022/10/18 02:47:13;;;;;;;24.95;14.48;;;14.70;99.90;;;13.28;100.00;101677.03;5003099;28;20018;-79
2022/10/18 02:49:38;;;;;;;30.50;15.65;;;14.60;99.90;;;13.26;100.00;101681.88;5007254;28;20057;-80
2022/10/18 02:52:04;;;;;;;25.10;14.93;;;14.50;99.90;;;13.18;100.00;101664.59;4977517;28;20038;-79
2022/10/18 02:54:30;;;;;;;24.05;14.57;;;14.50;99.90;;;13.14;100.00;101670.69;5005848;28;20046;-78
2022/10/18 02:56:55;;;;;;;25.00;15.18;;;14.50;99.90;;;13.16;100.00;101679.53;5001768;28;20042;-78
2022/10/18 02:59:21;;;;;;;23.90;14.95;;;14.50;99.90;;;13.14;100.00;101670.69;5001671;28;20504;-78
2022/10/18 03:01:47;;;;;;;23.98;15.00;;;14.50;99.90;;;13.16;100.00;101680.41;4999182;28;20057;-77
2022/10/18 03:04:13;;;;;;;24.05;14.13;;;14.50;99.90;;;13.12;100.00;101672.78;5006841;28;20068;-80
2022/10/18 03:06:38;;;;;;;26.65;15.40;;;14.40;99.90;;;13.07;100.00;101659.72;4995615;28;20033;-78
2022/10/18 03:09:05;;;;;;;22.83;13.93;;;14.40;99.90;;;13.11;100.00;101668.38;5004160;28;20061;-78
2022/10/18 03:11:31;;;;;;;24.77;14.00;;;14.40;99.90;;;13.07;100.00;101666.06;5000724;28;20026;-77
2022/10/18 03:13:57;;;;;;;27.05;16.52;;;14.40;99.90;;;13.05;100.00;101670.91;4999556;28;20029;-78
2022/10/18 03:16:23;;;;;;;26.80;14.63;;;14.30;99.90;;;13.04;100.00;101671.94;5000522;28;20116;-78
2022/10/18 03:18:48;;;;;;;29.30;15.48;;;14.40;99.90;;;13.06;100.00;101672.59;5001980;28;20042;-80
2022/10/18 03:21:14;;;;;;;26.98;15.45;;;14.40;99.90;;;13.05;100.00;101676.38;4972657;28;20038;-77
2022/10/18 03:23:41;;;;;;;27.23;16.23;;;14.40;99.90;;;13.03;100.00;101681.22;5005781;28;20032;-80
2022/10/18 03:26:07;;;;;;;28.15;15.20;;;14.40;99.90;;;13.01;100.00;101671.50;5002824;28;20018;-79
2022/10/18 03:28:33;;;;;;;27.27;15.23;;;14.40;99.90;;;13.00;100.00;101665.22;5004734;28;20466;-80
2022/10/18 03:31:01;;;;;;;28.38;15.40;;;14.30;99.90;;;12.97;100.00;101667.50;4999309;28;20032;-80
2022/10/18 03:33:27;;;;;;;26.88;15.75;;;14.30;99.90;;;12.97;100.00;101665.59;4998154;28;20408;-79
2022/10/18 03:35:53;;;;;;;31.30;15.40;;;14.30;99.90;;;12.88;100.00;101655.91;4977195;28;20033;-79
2022/10/18 03:38:19;;;;;;;26.65;14.95;;;14.30;99.90;;;12.93;100.00;101676.16;5004563;28;20030;-80
2022/10/18 03:40:45;;;;;;;23.50;13.52;;;14.30;99.90;;;12.88;100.00;101664.13;5005473;28;20084;-79
2022/10/18 03:43:11;;;;;;;23.67;13.63;;;14.30;99.90;;;12.85;100.00;101662.63;5004934;28;20034;-80
2022/10/18 03:45:36;;;;;;;26.83;14.95;;;14.20;99.90;;;12.89;100.00;101655.72;5004566;28;20032;-79
2022/10/18 03:48:02;;;;;;;23.15;14.45;;;14.20;99.90;;;12.92;100.00;101666.25;5000846;28;20026;-79
2022/10/18 03:50:28;;;;;;;26.95;14.60;;;14.20;99.90;;;12.87;100.00;101649.59;4998790;28;20042;-78
2022/10/18 03:52:54;;;;;;;28.30;14.52;;;14.20;99.90;;;12.81;100.00;101644.91;5000736;28;20034;-79
2022/10/18 03:55:20;;;;;;;26.15;13.77;;;14.20;99.90;;;12.76;100.00;101642.84;5003458;28;20381;-79
2022/10/18 03:57:46;;;;;;;20.17;12.18;;;14.10;99.90;;;12.67;100.00;101641.31;5004384;28;20033;-79
2022/10/18 04:00:13;;;;;;;22.55;13.77;;;14.10;99.90;;;12.59;100.00;101636.03;4999689;28;20061;-79
2022/10/18 04:02:40;;;;;;;29.10;15.75;;;14.00;99.90;;;12.72;100.00;101646.19;5000107;28;20067;-79
2022/10/18 04:05:06;;;;;;;25.90;14.20;;;14.10;99.90;;;12.72;100.00;101651.66;4999769;28;20053;-78
2022/10/18 04:07:33;;;;;;;23.83;13.02;;;14.00;99.90;;;12.71;100.00;101659.00;5004452;28;20068;-79
2022/10/18 04:09:59;;;;;;;25.55;13.93;;;14.00;99.90;;;12.70;100.00;101659.22;5003107;28;20473;-77
2022/10/18 04:12:25;;;;;;;23.90;14.00;;;14.00;99.90;;;12.66;100.00;101650.56;5003882;28;20046;-77
2022/10/18 04:14:51;;;;;;;20.85;13.05;;;14.00;99.90;;;12.70;100.00;101659.22;5002011;28;20045;-79
2022/10/18 04:17:17;;;;;;;19.98;11.98;;;14.00;99.90;;;12.69;100.00;101650.16;4999262;28;20045;-77
2022/10/18 04:19:42;;;;;;;22.60;12.88;;;14.10;99.90;;;12.68;100.00;101653.94;5000186;28;20366;-78
2022/10/18 04:22:10;;;;;;;30.17;14.93;;;14.00;99.90;;;12.65;100.00;101659.84;5000085;28;20034;-78
2022/10/18 04:24:37;;;;;;;26.17;12.73;;;14.00;99.90;;;12.58;100.00;101656.25;5004056;28;20561;-78
2022/10/18 04:27:05;;;;;;;28.70;13.88;;;14.00;99.90;;;12.57;100.00;101663.59;5002118;28;20026;-78
2022/10/18 04:29:31;;;;;;;22.58;12.20;;;13.90;99.90;;;12.52;100.00;101668.84;5004230;28;20056;-78
2022/10/18 04:31:57;;;;;;;20.08;12.00;;;13.80;99.90;;;12.48;100.00;101662.09;4999289;28;20999;-79
2022/10/18 04:34:23;;;;;;;23.75;14.38;;;13.80;99.90;;;12.51;100.00;101657.06;5000766;28;20037;-80
2022/10/18 04:36:49;;;;;;;34.50;15.25;;;13.80;99.90;;;12.55;100.00;101662.13;4999046;28;20036;-81
2022/10/18 04:39:16;;;;;;;23.38;13.27;;;13.90;99.90;;;12.50;100.00;101652.66;4975592;28;20038;-80
2022/10/18 04:41:42;;;;;;;24.27;13.32;;;13.90;99.90;;;12.35;100.00;101630.06;5004895;28;20252;-81
2022/10/18 04:44:07;;;;;;;26.92;13.85;;;13.80;99.90;;;12.44;100.00;101656.19;4984968;28;20513;-80
2022/10/18 04:46:33;;;;;;;25.88;13.15;;;13.80;99.90;;;12.46;100.00;101654.09;4999714;28;20457;-79
2022/10/18 04:49:02;;;;;;;27.02;13.80;;;13.80;99.90;;;12.48;100.00;101662.97;5000404;28;20041;-79
2022/10/18 04:51:29;;;;;;;33.40;15.15;;;13.80;99.90;;;12.49;100.00;101667.38;4999334;28;20038;-79
2022/10/18 04:53:55;;;;;;;24.13;13.48;;;13.80;99.90;;;12.43;100.00;101650.94;5002582;28;20810;-79
2022/10/18 04:56:21;;;;;;;29.98;14.73;;;13.80;99.90;;;12.47;100.00;101661.28;5004103;28;20038;-80
2022/10/18 04:58:47;;;;;;;27.17;14.32;;;13.80;99.90;;;12.44;100.00;101655.34;5002743;28;20464;-80
2022/10/18 05:01:13;;;;;;;33.50;15.23;;;13.80;99.90;;;12.40;100.00;101645.88;5001574;28;20022;-80
2022/10/18 05:03:39;;;;;;;28.30;14.70;;;13.80;99.90;;;12.42;100.00;101658.28;5001104;28;20030;-80
2022/10/18 05:06:05;;;;;;;26.70;13.90;;;13.80;99.90;;;12.44;100.00;101661.66;4995654;28;20400;-80
2022/10/18 05:08:34;;;;;;;28.58;14.60;;;13.80;99.90;;;12.52;100.00;101672.44;4999922;28;20079;-79
2022/10/18 05:11:00;;;;;;;25.20;13.95;;;13.80;99.90;;;12.49;100.00;101667.38;5003210;28;20049;-80
2022/10/18 05:13:26;;;;;;;27.60;13.93;;;13.90;99.90;;;12.56;100.00;101666.56;5008293;28;20041;-79
2022/10/18 05:15:51;;;;;;;24.50;14.25;;;13.90;99.90;;;12.57;100.00;101673.72;5006256;28;20154;-81
2022/10/18 05:18:17;;;;;;;25.55;13.30;;;13.90;99.90;;;12.54;100.00;101671.41;5007501;28;20054;-80
2022/10/18 05:20:43;;;;;;;26.48;13.32;;;13.80;99.90;;;12.49;100.00;101674.75;5008023;28;20133;-79
2022/10/18 05:23:09;;;;;;;35.95;15.82;;;13.80;99.90;;;12.43;100.00;101664.63;5005044;28;20423;-80
2022/10/18 05:25:40;;;;;;;35.03;15.65;;;13.90;99.90;;;12.48;100.00;101667.56;5004002;28;20040;-79
2022/10/18 05:28:06;;;;;;;43.15;18.45;;;13.90;99.90;;;12.49;100.00;101675.59;5002731;28;20029;-79
2022/10/18 05:30:31;;;;;;;44.58;17.13;;;13.90;99.90;;;12.51;100.00;101676.22;5001192;28;20037;-80
2022/10/18 05:32:57;;;;;;;30.33;15.20;;;13.90;99.90;;;12.52;100.00;101679.81;5009513;28;20136;-83
2022/10/18 05:35:23;;;;;;;34.00;16.15;;;13.90;99.90;;;12.42;100.00;101669.22;5026439;28;20029;-81
2022/10/18 05:37:49;;;;;;;43.15;15.90;;;13.90;99.90;;;12.49;100.00;101683.81;5002445;28;20029;-81
2022/10/18 05:40:14;;;;;;;42.00;15.55;;;13.90;99.90;;;12.51;100.00;101694.53;5014651;28;20153;-80
2022/10/18 05:42:40;;;;;;;42.25;16.10;;;13.80;99.90;;;12.43;100.00;101670.09;5008535;28;20098;-81
2022/10/18 05:45:07;;;;;;;41.42;15.65;;;13.80;99.90;;;12.43;100.00;101683.78;5009417;28;20018;-80
2022/10/18 05:47:33;;;;;;;43.95;16.75;;;13.80;99.90;;;12.40;100.00;101681.44;5009394;28;20045;-81
2022/10/18 05:49:58;;;;;;;31.60;13.90;;;13.80;99.90;;;12.37;100.00;101683.53;5007591;28;20049;-83
2022/10/18 05:52:24;;;;;;;38.08;16.13;;;13.80;99.90;;;12.48;100.00;101695.81;5015467;28;20038;-82
2022/10/18 05:54:50;;;;;;;31.05;14.65;;;13.80;99.90;;;12.49;100.00;101694.75;5012702;28;20100;-81
2022/10/18 05:57:16;;;;;;;43.63;16.52;;;13.80;99.90;;;12.46;100.00;101686.94;5021658;28;20038;-81
2022/10/18 05:59:43;;;;;;;28.42;14.63;;;13.80;99.90;;;12.39;100.00;101677.84;5018849;28;20034;-81
2022/10/18 06:02:11;;;;;;;36.00;16.87;;;13.80;99.90;;;12.55;100.00;101706.75;5013175;28;20558;-81
2022/10/18 06:04:36;;;;;;;43.00;17.60;;;13.90;99.90;;;12.56;100.00;101704.88;5013916;28;20026;-81
2022/10/18 06:07:06;;;;;;;37.00;17.23;;;13.90;99.90;;;12.55;100.00;101703.19;5016963;28;20312;-81
2022/10/18 06:09:32;;;;;;;36.30;15.88;;;13.90;99.90;;;12.60;100.00;101709.75;5012404;28;20073;-82
2022/10/18 06:11:58;;;;;;;42.50;17.35;;;13.90;99.90;;;12.59;100.00;101707.22;5026538;28;20021;-83
2022/10/18 06:14:24;;;;;;;52.17;18.73;;;14.00;99.90;;;12.60;100.00;101698.81;5018400;28;20029;-82
2022/10/18 06:16:50;;;;;;;44.17;18.63;;;13.90;99.90;;;12.64;100.00;101708.28;5029840;28;20020;-84
2022/10/18 06:19:16;;;;;;;46.67;19.02;;;14.00;99.90;;;12.63;100.00;101706.59;5026175;28;20129;-85
2022/10/18 06:21:43;;;;;;;50.60;20.48;;;14.00;99.90;;;12.66;100.00;101708.94;5020666;28;20520;-85
2022/10/18 06:24:09;;;;;;;51.58;20.88;;;14.00;99.90;;;12.70;100.00;101717.56;5023516;28;20010;-85
2022/10/18 06:26:34;;;;;;;58.13;20.80;;;14.00;99.90;;;12.74;100.00;101726.22;5021256;28;20032;-86
2022/10/18 06:29:08;;;;;;;45.53;19.63;;;14.10;99.90;;;12.80;100.00;101734.47;5033065;28;20049;-86
2022/10/18 06:31:37;;;;;;;70.38;22.77;;;14.10;99.90;;;12.74;100.00;101724.34;5020296;28;20038;-84
2022/10/18 06:34:08;;;;;;;58.75;20.55;;;14.10;99.90;;;12.38;100.00;101662.47;5012980;28;20034;-84
2022/10/18 06:36:42;;;;;;;66.03;23.17;;;14.20;99.90;;;12.37;100.00;101658.06;5035400;28;20088;-83
2022/10/18 06:39:09;;;;;;;76.30;24.40;;;14.20;99.90;;;12.73;100.00;101705.34;5031647;28;20034;-84
2022/10/18 06:41:54;;;;;;;77.47;25.20;;;14.20;99.90;;;12.93;100.00;101735.53;5028392;28;20025;-84
2022/10/18 06:44:21;;;;;;;71.32;23.77;;;14.30;99.90;;;12.94;100.00;101729.00;5026650;28;20042;-83
2022/10/18 06:47:57;;;;;;;81.82;25.92;;;14.30;99.90;;;12.97;100.00;101731.34;5025296;28;20121;-82
2022/10/18 06:54:06;;;;;;;93.65;26.35;;;14.30;99.90;;;12.72;100.00;101689.97;5037191;23;20270;-81
2022/10/18 06:56:34;;;;;;;62.10;23.77;;;14.30;99.90;;;13.03;100.00;101741.47;4948211;29;20053;-85
2022/10/18 06:59:00;;;;;;;81.75;26.65;;;14.30;99.90;;;13.06;100.00;101742.94;4945124;28;20035;-85
2022/10/18 07:01:27;;;;;;;97.28;27.70;;;14.40;99.90;;;13.07;100.00;101740.03;4950292;28;20503;-84
2022/10/18 07:03:55;;;;;;;79.60;26.07;;;14.40;99.90;;;13.09;100.00;101735.16;4951894;28;20045;-84
2022/10/18 07:06:22;;;;;;;88.75;26.90;;;14.40;99.90;;;13.14;100.00;101741.91;4952399;28;20030;-83
2022/10/18 07:08:51;;;;;;;100.55;28.95;;;14.50;99.90;;;13.17;100.00;101746.97;4947370;28;20122;-86
2022/10/18 07:11:24;;;;;;;70.78;25.95;;;14.50;99.90;;;13.19;100.00;101733.91;4941270;28;20035;-84
2022/10/18 07:13:53;;;;;;;81.90;27.42;;;14.50;99.90;;;13.26;100.00;101740.28;4939638;29;20102;-85
2022/10/18 07:16:19;;;;;;;94.70;28.25;;;14.60;99.90;;;13.27;100.00;101741.97;4942291;28;20033;-85
2022/10/18 07:18:49;;;;;;;94.13;27.92;;;14.60;99.90;;;13.31;100.00;101743.22;4946172;28;20472;-85
2022/10/18 07:21:20;;;;;;;80.53;28.55;;;14.60;99.90;;;13.33;100.00;101738.38;4936699;28;21050;-84
2022/10/18 07:23:47;;;;;;;90.10;28.08;;;14.70;99.90;;;13.37;100.00;101736.91;4942253;28;20775;-82
2022/10/18 07:26:27;;;;;;;94.03;27.37;;;14.70;99.90;;;13.42;100.00;101740.91;4943994;28;20031;-82
2022/10/18 07:29:00;;;;;;;73.97;26.30;;;14.70;99.90;;;13.44;100.00;101741.56;4943401;28;20039;-82
2022/10/18 07:31:28;;;;;;;73.45;27.67;;;14.80;99.90;;;13.49;100.00;101745.38;4939901;28;20209;-82
2022/10/18 07:33:54;;;;;;;90.20;28.30;;;14.80;99.90;;;13.48;100.00;101737.34;4940096;28;20471;-82
2022/10/18 07:36:21;;;;;;;101.88;32.10;;;14.80;99.90;;;13.55;100.00;101753.81;4947500;28;20041;-81
2022/10/18 07:38:47;;;;;;;98.00;31.20;;;14.90;99.90;;;13.57;100.00;101747.09;4941498;29;20027;-81
2022/10/18 07:41:13;;;;;;;106.75;34.20;;;14.90;99.90;;;13.54;100.00;101743.91;4938826;28;20557;-83
2022/10/18 07:43:46;;;;;;;98.95;32.67;;;14.90;99.90;;;13.57;100.00;101749.81;4939732;28;20066;-82
2022/10/18 07:46:13;;;;;;;101.75;31.67;;;14.90;99.90;;;13.56;100.00;101739.91;4945037;28;20041;-84
2022/10/18 07:48:39;;;;;;;112.63;31.00;;;14.90;99.90;;;13.58;100.00;101726.84;4924566;29;20074;-82
2022/10/18 07:51:05;;;;;;;85.55;28.98;;;14.90;99.90;;;13.67;100.00;101741.19;4938748;28;20059;-84
2022/10/18 07:53:33;;;;;;;87.25;29.13;;;15.00;99.90;;;13.75;100.00;101740.97;4947306;28;20035;-83
2022/10/18 07:56:01;;;;;;;85.60;28.52;;;15.00;99.90;;;13.89;100.00;101741.78;4941904;28;20470;-85
2022/10/18 07:58:27;;;;;;;97.22;30.77;;;15.20;99.90;;;14.00;100.00;101739.44;4942859;28;20086;-83
2022/10/18 08:00:54;;;;;;;89.63;29.67;;;15.30;99.90;;;14.14;100.00;101741.13;4937711;28;20031;-84
2022/10/18 08:03:19;;;;;;;83.75;29.67;;;15.40;99.90;;;14.13;100.00;101733.97;4948758;28;20043;-85
2022/10/18 08:05:53;;;;;;;93.55;31.35;;;15.40;99.90;;;14.28;100.00;101724.63;4948110;28;20031;-85
2022/10/18 08:08:21;;;;;;;85.00;31.98;;;15.50;99.90;;;14.34;100.00;101730.09;4945291;28;20098;-85
2022/10/18 08:10:47;;;;;;;;;;;15.60;99.90;;;14.36;100.00;101718.91;4944669;28;20027;-85
2022/10/18 08:13:14;;;;;;;77.60;29.48;;;15.60;99.90;;;14.65;100.00;101738.66;4950741;29;19918;-85
2022/10/18 08:15:40;;;;;;;69.22;29.45;;;15.80;99.90;;;15.03;100.00;101742.53;4944528;28;20041;-84
2022/10/18 08:18:05;;;;;;;81.65;32.20;;;16.10;99.90;;;15.17;100.00;101741.38;4926431;29;21130;-85
2022/10/18 08:20:32;;;;;;;76.30;30.40;;;16.30;99.90;;;15.35;100.00;101748.84;4945469;28;20035;-84
2022/10/18 08:22:58;;;;;;;65.43;29.73;;;16.50;99.90;;;15.62;100.00;101743.16;4937853;28;20047;-86
2022/10/18 08:25:24;;;;;;;59.35;28.60;;;16.70;99.90;;;15.63;100.00;101738.50;4947701;28;20035;-84
2022/10/18 08:27:50;;;;;;;56.25;27.45;;;16.80;99.90;;;15.67;100.00;101731.50;4944302;28;20561;-84
2022/10/18 08:30:16;;;;;;;53.33;25.75;;;16.80;99.90;;;15.87;100.00;101744.22;4951421;28;20039;-83
2022/10/18 08:32:42;;;;;;;47.17;24.98;;;17.00;99.90;;;16.08;100.00;101754.88;4929354;29;20036;-82
2022/10/18 08:35:08;;;;;;;44.22;25.17;;;17.10;99.90;;;15.98;100.00;101753.69;4943550;28;20046;-81
2022/10/18 08:37:34;;;;;;;42.17;25.13;;;17.30;99.90;;;16.07;100.00;101750.44;4945382;28;20093;-82
2022/10/18 08:39:59;;;;;;;42.67;24.95;;;17.30;99.90;;;16.07;100.00;101755.06;4941162;28;20035;-82
2022/10/18 08:43:22;;;;;;;39.83;23.50;;;17.30;99.90;;;15.74;100.00;101748.78;4938922;28;20031;-79
2022/10/18 08:45:51;;;;;;;40.03;23.23;;;17.10;99.90;;;15.47;100.00;101746.22;4935265;28;20065;-80
2022/10/18 08:48:42;;;;;;;39.67;24.85;;;17.00;99.90;;;15.62;100.00;101754.16;4942505;28;20475;-78
2022/10/18 08:51:32;;;;;;;40.67;23.77;;;16.80;99.90;;;15.56;100.00;101760.56;4942099;28;20042;-79
2022/10/18 08:54:14;;;;;;;42.95;25.08;;;16.80;99.90;;;15.39;100.00;101749.25;4939794;28;20082;-78
2022/10/18 08:56:48;;;;;;;45.42;25.05;;;16.60;99.90;;;15.26;100.00;101735.63;4944520;28;20047;-79
2022/10/18 08:59:13;;;;;;;41.33;24.48;;;16.60;99.90;;;15.25;100.00;101754.00;4924146;29;20117;-81
2022/10/18 09:02:00;;;;;;;42.78;25.65;;;16.50;99.90;;;15.24;100.00;101760.56;4942240;28;20031;-77
2022/10/18 09:04:48;;;;;;;43.55;24.17;;;16.50;99.90;;;15.27;100.00;101765.63;4942087;28;20020;-78
2022/10/18 09:08:00;;;;;;;45.17;23.48;;;16.50;99.90;;;15.31;100.00;101766.88;4944902;28;20285;-79
2022/10/18 09:10:47;;;;;;;40.55;24.27;;;16.50;99.90;;;15.34;100.00;101776.59;4938491;28;20058;-75
2022/10/18 09:13:49;;;;;;;43.47;24.38;;;16.50;99.90;;;15.31;100.00;101782.53;4939022;29;20704;-77
2022/10/18 09:16:43;;;;;;;44.53;23.58;;;16.50;99.90;;;15.23;100.00;101792.69;4944685;28;20048;-77
2022/10/18 09:19:44;;;;;;;39.90;25.55;;;16.50;99.90;;;15.15;100.00;101784.72;4942845;28;20031;-80
2022/10/18 09:22:18;;;;;;;46.22;29.02;;;16.50;99.90;;;15.34;100.00;101790.34;4938830;28;20395;-80
2022/10/18 09:25:04;;;;;;;38.28;23.27;;;16.60;99.90;;;15.43;100.00;101790.91;4939964;28;20642;-79
2022/10/18 09:28:00;;;;;;;41.05;22.98;;;16.70;99.90;;;15.47;100.00;101795.72;4939421;28;20079;-79
2022/10/18 09:30:44;;;;;;;36.15;21.15;;;16.80;99.90;;;15.40;100.00;101797.69;4933049;29;20047;-76
2022/10/18 09:33:45;;;;;;;33.03;18.45;;;16.80;99.90;;;15.51;100.00;101798.88;4941540;28;20162;-79
2022/10/18 09:36:34;;;;;;;31.50;18.38;;;16.80;99.90;;;15.56;100.00;101803.72;4901703;28;20043;-82
2022/10/18 09:39:10;;;;;;;33.67;19.42;;;16.90;99.90;;;15.51;100.00;101799.72;4941874;28;20116;-79
2022/10/18 09:41:50;;;;;;;34.88;19.48;;;16.90;99.90;;;15.55;100.00;101805.63;4946540;28;20035;-78
2022/10/18 09:44:38;;;;;;;31.15;17.95;;;16.90;99.90;;;15.50;100.00;101803.53;4936673;29;20390;-79
2022/10/18 09:47:24;;;;;;;34.92;21.42;;;16.90;99.90;;;15.38;100.00;101805.31;4940421;28;20035;-77
2022/10/18 09:50:00;;;;;;;32.50;17.83;;;16.80;99.90;;;15.53;100.00;101803.13;4942926;28;20046;-78
2022/10/18 09:52:45;;;;;;;32.80;18.90;;;16.80;99.90;;;15.65;100.00;101805.13;4944572;28;20190;-79
2022/10/18 09:55:23;;;;;;;30.52;17.95;;;16.90;99.90;;;15.60;100.00;101811.28;4941813;28;20118;-78
2022/10/18 09:57:59;;;;;;;29.75;16.85;;;16.90;99.90;;;15.58;100.00;101813.44;4941754;28;20042;-78
2022/10/18 10:00:40;;;;;;;28.38;16.95;;;16.90;99.90;;;15.76;100.00;101801.66;4940384;28;20035;-78
2022/10/18 10:03:13;;;;;;;32.33;17.48;;;17.10;99.90;;;16.02;100.00;101804.47;4943407;29;20054;-77
2022/10/18 10:05:39;;;;;;;29.27;17.48;;;17.40;99.90;;;15.87;100.00;101813.84;4947107;28;20089;-78
2022/10/18 10:08:05;;;;;;;29.65;17.63;;;17.30;99.90;;;15.66;100.00;101810.44;4943643;28;20453;-79
2022/10/18 10:10:33;;;;;;;31.30;18.77;;;17.20;99.90;;;15.74;100.00;101806.53;4942141;29;20097;-78
2022/10/18 10:13:24;;;;;;;;;;;17.20;99.90;;;15.86;100.00;101814.91;4951795;28;20490;-80
2022/10/18 10:16:02;;;;;;;31.27;17.35;;;17.20;99.90;;;15.91;100.00;101804.13;4954545;28;19914;-77
2022/10/18 10:18:36;;;;;;;28.15;18.50;;;17.30;99.90;;;15.90;100.00;101816.19;4951320;28;20049;-79